Time;durP1;ratioP1;P1;durP2;ratioP2;P2;SDS_P1;SDS_P2;PMS_P1;PMS_P2;Temp;Humidity;BMP_temperature;BMP_pressure;BME280_temperature;BME280_humidity;BME280_pressure;Samples;Min_cycle;Max_cycle;Signal;HPM_P1;HPM_P2
2022/10/06 00:01:41;;;;;;;15.43;5.20;;;16.30;99.90;;;16.64;64.23;101976.25;5033933;28;20056;-65
2022/10/06 00:04:11;;;;;;;16.00;4.93;;;16.30;99.90;;;16.53;64.28;101970.13;5032863;28;20049;-65
2022/10/06 00:06:39;;;;;;;15.67;4.37;;;16.30;99.90;;;16.49;63.76;101968.38;5033857;28;20052;-65
2022/10/06 00:09:07;;;;;;;18.75;5.63;;;16.30;99.90;;;16.65;63.69;101990.47;5033840;28;20063;-65
2022/10/06 00:11:36;;;;;;;13.30;4.35;;;16.40;99.90;;;16.58;63.71;101983.44;5034126;28;20076;-65
2022/10/06 00:14:05;;;;;;;17.00;5.63;;;16.40;99.90;;;16.71;64.00;101993.97;5033798;28;20060;-66
2022/10/06 00:16:33;;;;;;;12.55;4.75;;;16.40;99.90;;;16.72;64.29;102002.88;5033702;28;20071;-64
2022/10/06 00:19:01;;;;;;;15.15;4.85;;;16.50;99.90;;;16.69;64.29;102018.94;5033649;28;20080;-65
2022/10/06 00:21:31;;;;;;;17.35;5.10;;;16.40;99.90;;;16.70;64.46;102023.41;5034122;28;20574;-65
2022/10/06 00:23:59;;;;;;;13.55;4.75;;;16.40;99.90;;;16.63;63.45;102013.66;5033834;28;20055;-65
2022/10/06 00:26:27;;;;;;;18.92;4.97;;;16.40;99.90;;;16.67;63.26;102024.31;5032134;28;20046;-65
2022/10/06 00:28:56;;;;;;;10.98;4.78;;;16.40;99.90;;;16.50;63.20;102012.03;5033437;28;20125;-65
2022/10/06 00:31:24;;;;;;;13.75;4.28;;;16.40;99.90;;;16.64;63.21;102047.50;5033580;28;20045;-65
2022/10/06 00:33:52;;;;;;;15.73;4.82;;;16.40;99.90;;;16.66;63.12;102025.22;5033597;28;20064;-65
2022/10/06 00:36:21;;;;;;;15.30;5.47;;;16.50;99.90;;;16.75;62.97;102051.84;5032815;28;20048;-65
2022/10/06 00:38:51;;;;;;;17.20;4.50;;;16.50;99.90;;;16.72;62.72;102065.25;5033903;28;20040;-65
2022/10/06 00:41:20;;;;;;;17.47;4.67;;;16.50;99.90;;;16.76;62.94;102056.25;5032873;28;20045;-65
2022/10/06 00:43:51;;;;;;;17.92;5.13;;;16.50;99.90;;;16.62;62.97;102057.31;5049445;28;20049;-65
2022/10/06 00:46:35;;;;;;;14.35;4.40;;;16.40;99.90;;;16.58;62.99;102077.84;5032820;28;20079;-66
2022/10/06 00:49:11;;;;;;;16.92;5.68;;;16.30;99.90;;;16.52;62.86;102069.88;5032709;28;20061;-66
2022/10/06 00:51:44;;;;;;;17.73;4.80;;;16.30;99.90;;;16.56;62.96;102076.97;5033820;28;20049;-65
2022/10/06 00:54:15;;;;;;;20.40;4.50;;;16.30;99.90;;;16.36;63.67;102083.34;5032739;28;20097;-66
2022/10/06 00:56:44;;;;;;;19.30;5.28;;;16.20;99.90;;;16.41;63.34;102090.44;5032672;28;20042;-64
2022/10/06 00:59:15;;;;;;;16.92;4.43;;;16.10;99.90;;;16.51;63.31;102096.63;5033851;28;20476;-65
2022/10/06 01:01:50;;;;;;;15.32;4.60;;;16.20;99.90;;;16.47;63.26;102097.50;5033874;28;20071;-66
2022/10/06 01:04:19;;;;;;;17.95;5.25;;;16.20;99.90;;;16.27;63.01;102049.59;5032566;28;20049;-65
2022/10/06 01:06:52;;;;;;;18.90;5.25;;;16.20;99.90;;;16.54;62.74;102112.59;5032334;28;20033;-65
2022/10/06 01:09:24;;;;;;;14.25;4.88;;;16.20;99.90;;;16.55;62.65;102115.25;5032520;28;20485;-66
2022/10/06 01:11:56;;;;;;;20.05;5.53;;;16.30;99.90;;;16.44;62.60;102109.09;5032134;28;20064;-65
2022/10/06 01:14:25;;;;;;;14.80;4.75;;;16.30;99.90;;;16.44;62.63;102119.78;5032414;28;20083;-65
2022/10/06 01:16:59;;;;;;;18.42;4.78;;;16.20;99.90;;;16.43;62.51;102101.09;5032305;28;20049;-65
2022/10/06 01:19:42;;;;;;;13.88;4.60;;;16.20;99.90;;;16.28;62.61;102075.41;5048840;28;20045;-65
2022/10/06 01:22:14;;;;;;;17.35;4.78;;;16.20;99.90;;;16.47;62.76;102118.88;5048844;28;20049;-66
2022/10/06 01:24:46;;;;;;;17.75;5.05;;;16.20;99.90;;;16.48;62.26;102132.25;5032015;28;20057;-65
2022/10/06 01:27:16;;;;;;;19.95;4.93;;;16.20;99.90;;;16.44;62.70;102133.13;5032101;28;20046;-65
2022/10/06 01:29:45;;;;;;;15.15;5.03;;;16.20;99.90;;;16.55;62.47;102149.97;5033373;28;20049;-65
2022/10/06 01:32:13;;;;;;;14.55;5.22;;;16.20;99.90;;;16.44;62.43;102151.84;5032077;28;20087;-65
2022/10/06 01:34:41;;;;;;;15.65;4.50;;;16.20;99.90;;;16.34;62.46;102143.91;5048935;28;20071;-65
2022/10/06 01:37:10;;;;;;;13.00;4.65;;;16.10;99.90;;;16.51;62.20;102160.72;5032048;28;20045;-65
2022/10/06 01:39:38;;;;;;;12.52;4.53;;;16.20;99.90;;;16.41;61.71;102157.22;5032000;28;20076;-65
2022/10/06 01:42:08;;;;;;;11.82;3.97;;;16.10;99.90;;;16.27;62.06;102154.63;5032011;28;20518;-66
2022/10/06 01:44:37;;;;;;;17.92;4.88;;;16.00;99.90;;;16.42;61.97;102160.75;5031740;28;20046;-65
2022/10/06 01:47:07;;;;;;;14.27;4.15;;;16.10;99.90;;;16.40;62.06;102163.44;5031807;28;20077;-65
2022/10/06 01:49:35;;;;;;;18.98;5.75;;;16.10;99.90;;;16.44;61.95;102164.28;5033087;28;20048;-65
2022/10/06 01:52:04;;;;;;;20.13;4.70;;;16.20;99.90;;;16.26;61.98;102163.53;5031870;28;20049;-65
2022/10/06 01:54:33;;;;;;;14.57;4.47;;;16.00;99.90;;;16.26;61.92;102171.53;5032848;28;20537;-65
2022/10/06 01:57:01;;;;;;;16.45;4.70;;;16.00;99.90;;;16.23;62.01;102176.03;5031875;28;20034;-65
2022/10/06 01:59:31;;;;;;;15.55;4.85;;;15.90;99.90;;;16.28;62.17;102167.09;5031811;28;20099;-65
2022/10/06 02:01:59;;;;;;;16.48;4.47;;;16.00;99.90;;;16.38;62.27;102178.59;5032939;28;20045;-65
2022/10/06 02:04:28;;;;;;;15.82;5.05;;;16.10;99.90;;;16.39;62.45;102172.34;5036745;28;20403;-66
2022/10/06 02:06:56;;;;;;;28.30;5.03;;;16.20;99.90;;;16.39;62.96;102176.81;5037083;28;20080;-65
2022/10/06 02:09:25;;;;;;;17.95;4.60;;;16.10;99.90;;;16.48;63.06;102183.00;5035675;28;20063;-65
2022/10/06 02:11:54;;;;;;;23.07;4.73;;;16.20;99.90;;;16.47;63.16;102177.63;5035720;28;20433;-65
2022/10/06 02:14:23;;;;;;;19.52;4.82;;;16.20;99.90;;;16.42;63.31;102190.13;5036852;28;20123;-65
2022/10/06 02:16:53;;;;;;;15.65;5.35;;;16.20;99.90;;;16.30;64.07;102200.91;5035468;28;20046;-65
2022/10/06 02:19:21;;;;;;;21.50;5.23;;;16.10;99.90;;;16.45;63.78;102207.03;5035578;28;20087;-66
2022/10/06 02:21:50;;;;;;;15.35;4.55;;;16.20;99.90;;;16.47;63.72;102199.91;5036487;28;20038;-66
2022/10/06 02:24:18;;;;;;;14.10;4.95;;;16.20;99.90;;;16.48;63.71;102200.78;5036444;28;20045;-66
2022/10/06 02:26:46;;;;;;;13.50;4.53;;;16.20;99.90;;;16.49;63.64;102206.13;5036202;28;20049;-66
2022/10/06 02:29:14;;;;;;;19.90;5.07;;;16.30;99.90;;;16.29;63.42;102208.03;5035226;28;20041;-66
2022/10/06 02:31:43;;;;;;;17.33;5.00;;;16.10;99.90;;;16.37;63.37;102216.88;5035329;28;20033;-65
2022/10/06 02:34:13;;;;;;;17.52;5.57;;;16.10;99.90;;;16.30;63.19;102195.56;5035216;28;20057;-65
2022/10/06 02:36:42;;;;;;;16.37;5.07;;;16.10;99.90;;;16.20;63.32;102206.28;5051866;28;20497;-65
2022/10/06 02:39:10;;;;;;;14.43;4.43;;;16.00;99.90;;;16.23;63.15;102226.75;5036344;28;20081;-65
2022/10/06 02:41:39;;;;;;;17.05;4.70;;;15.90;99.90;;;16.28;62.22;102230.28;5036081;28;20037;-65
2022/10/06 02:44:07;;;;;;;16.10;5.05;;;16.00;99.90;;;16.31;61.93;102240.06;5036274;28;20041;-65
2022/10/06 02:46:37;;;;;;;15.52;4.93;;;16.00;99.90;;;16.00;61.29;102201.97;5051717;28;20050;-65
2022/10/06 02:49:06;;;;;;;15.05;4.32;;;16.00;99.90;;;16.08;61.35;102237.53;5034883;28;20545;-65
2022/10/06 02:51:37;;;;;;;14.77;4.40;;;15.90;99.90;;;16.22;61.52;102236.53;5034940;28;20052;-65
2022/10/06 02:54:05;;;;;;;20.15;4.93;;;15.90;99.90;;;16.21;61.01;102244.56;5035921;28;20120;-65
2022/10/06 02:56:36;;;;;;;21.83;5.30;;;15.90;99.90;;;16.12;61.40;102250.84;5034856;28;20076;-65
2022/10/06 02:59:05;;;;;;;16.00;4.57;;;15.80;99.90;;;16.17;61.25;102258.81;5035705;28;20487;-65
2022/10/06 03:01:36;;;;;;;12.27;4.35;;;15.90;99.90;;;16.17;61.94;102264.16;5034786;28;20041;-64
2022/10/06 03:04:11;;;;;;;15.32;4.85;;;15.90;99.90;;;16.06;62.71;102266.00;5034806;28;20050;-65
2022/10/06 03:06:43;;;;;;;20.35;5.78;;;15.80;99.90;;;16.08;63.64;102269.56;5034440;28;20144;-65
2022/10/06 03:09:19;;;;;;;22.77;5.60;;;15.80;99.90;;;15.96;63.36;102272.28;5034286;28;20142;-65
2022/10/06 03:11:48;;;;;;;15.25;4.63;;;15.70;99.90;;;15.90;63.57;102280.31;5036154;28;20048;-67
2022/10/06 03:14:22;;;;;;;18.13;4.65;;;15.70;99.90;;;15.90;63.39;102291.88;5033970;28;20073;-65
2022/10/06 03:16:53;;;;;;;17.88;5.07;;;15.60;99.90;;;15.89;63.32;102281.22;5034495;28;20402;-65
2022/10/06 03:19:26;;;;;;;21.48;5.25;;;15.60;99.90;;;15.87;64.00;102293.66;5051088;28;20057;-65
2022/10/06 03:22:02;;;;;;;17.85;5.53;;;15.60;99.90;;;15.80;64.57;102294.56;5034417;28;20049;-65
2022/10/06 03:24:42;;;;;;;16.98;5.15;;;15.50;99.90;;;15.90;64.35;102307.00;5034139;28;20131;-66
2022/10/06 03:27:11;;;;;;;18.50;5.35;;;15.50;99.90;;;16.06;64.21;102306.06;5034374;28;20042;-66
2022/10/06 03:29:39;;;;;;;21.35;5.65;;;15.70;99.90;;;16.02;64.45;102309.63;5034153;28;20041;-66
2022/10/06 03:32:08;;;;;;;20.27;5.68;;;15.70;99.90;;;16.15;64.07;102320.25;5035416;28;20076;-66
2022/10/06 03:34:37;;;;;;;19.30;4.90;;;15.80;99.90;;;16.11;63.80;102320.25;5034158;28;20457;-66
2022/10/06 03:37:09;;;;;;;20.67;5.20;;;15.80;99.90;;;16.11;63.63;102322.94;5035396;28;20081;-66
2022/10/06 03:39:39;;;;;;;22.83;6.18;;;15.80;99.90;;;15.81;64.43;102326.59;5034166;28;20492;-65
2022/10/06 03:42:07;;;;;;;15.52;4.78;;;15.60;99.90;;;15.94;64.43;102325.66;5034005;28;20041;-66
2022/10/06 03:44:35;;;;;;;17.02;4.85;;;15.60;99.90;;;15.87;64.89;102328.38;5035226;28;20053;-67
2022/10/06 03:47:04;;;;;;;21.20;5.32;;;15.60;99.90;;;16.02;64.71;102329.22;5050823;28;20053;-65
2022/10/06 03:49:34;;;;;;;19.35;5.13;;;15.70;99.90;;;16.08;64.32;102333.63;5033766;28;20107;-66
2022/10/06 03:52:02;;;;;;;15.25;4.63;;;15.70;99.90;;;16.14;63.96;102331.81;5033854;28;20048;-66
2022/10/06 03:54:36;;;;;;;15.57;4.35;;;15.90;99.90;;;16.04;63.79;102337.22;5033507;28;20056;-66
2022/10/06 03:57:05;;;;;;;10.60;4.50;;;15.80;99.90;;;16.17;63.67;102349.63;5033701;28;20067;-65
2022/10/06 03:59:33;;;;;;;18.77;5.03;;;15.80;99.90;;;16.20;63.65;102357.63;5034688;28;20495;-65
2022/10/06 04:02:04;;;;;;;16.35;4.93;;;15.90;99.90;;;16.18;63.53;102362.09;5033697;28;20576;-66
2022/10/06 04:04:36;;;;;;;17.05;4.28;;;15.90;99.90;;;15.84;63.89;102323.91;5033599;28;20060;-66
2022/10/06 04:07:08;;;;;;;14.68;4.55;;;15.70;99.90;;;16.10;63.80;102369.22;5033564;28;20136;-66
2022/10/06 04:09:38;;;;;;;14.80;4.53;;;15.80;99.90;;;16.08;63.63;102368.34;5033326;28;20046;-65
2022/10/06 04:12:07;;;;;;;16.92;4.93;;;15.70;99.90;;;15.93;64.10;102389.75;5033493;28;20132;-65
2022/10/06 04:14:37;;;;;;;16.73;4.40;;;15.70;99.90;;;15.95;64.04;102379.94;5033518;28;20681;-66
2022/10/06 04:17:07;;;;;;;16.17;4.33;;;15.60;99.90;;;15.90;64.22;102379.94;5033387;28;20376;-65
2022/10/06 04:19:37;;;;;;;17.00;5.03;;;15.60;99.90;;;15.84;63.95;102361.28;5033310;28;20557;-65
2022/10/06 04:22:05;;;;;;;23.58;5.30;;;15.60;99.90;;;16.00;63.91;102380.81;5034465;28;20045;-66
2022/10/06 04:24:35;;;;;;;18.98;5.13;;;15.70;99.90;;;15.94;63.83;102388.84;5032251;28;20045;-66
2022/10/06 04:29:56;;;;;;;19.67;5.13;;;15.70;99.90;;;15.85;63.91;102378.19;5049368;28;20042;-65
2022/10/06 04:32:26;;;;;;;16.40;5.07;;;15.70;99.90;;;15.85;64.59;102394.19;5034277;28;20057;-66
2022/10/06 04:34:54;;;;;;;16.17;4.90;;;15.60;99.90;;;15.83;64.57;102410.19;5032905;28;20107;-66
2022/10/06 04:37:24;;;;;;;18.10;5.67;;;15.50;99.90;;;15.74;64.55;102371.94;5032972;28;20042;-66
2022/10/06 04:39:53;;;;;;;14.23;4.60;;;15.50;99.90;;;15.90;64.33;102400.41;5032610;28;20354;-65
2022/10/06 04:42:23;;;;;;;20.60;5.95;;;15.60;99.90;;;16.01;64.23;102401.25;5032783;28;20045;-66
2022/10/06 04:44:51;;;;;;;17.27;4.63;;;15.70;99.90;;;16.00;64.23;102404.84;5033149;28;20057;-65
2022/10/06 04:47:20;;;;;;;14.70;5.03;;;15.70;99.90;;;16.04;64.44;102414.63;5032853;28;20308;-66
2022/10/06 04:49:50;;;;;;;24.83;5.53;;;15.70;99.90;;;16.07;64.25;102415.50;5032659;28;20044;-66
2022/10/06 04:52:18;;;;;;;19.83;4.78;;;15.80;99.90;;;16.16;64.01;102411.94;5049514;28;20446;-65
2022/10/06 04:54:46;;;;;;;20.90;5.45;;;15.80;99.90;;;16.11;64.14;102414.59;5033956;28;20042;-66
2022/10/06 04:57:15;;;;;;;19.73;5.22;;;15.80;99.90;;;16.07;64.26;102414.59;5032567;28;20053;-65
2022/10/06 05:02:39;;;;;;;13.38;4.32;;;15.80;99.90;;;16.17;64.03;102430.59;5032568;28;20053;-66
2022/10/06 05:05:08;;;;;;;13.68;4.45;;;15.80;99.90;;;16.23;63.95;102445.72;5032402;28;20049;-66
2022/10/06 05:07:40;;;;;;;16.10;5.80;;;15.90;99.90;;;16.25;63.77;102449.28;5048910;28;20045;-66
2022/10/06 05:10:09;;;;;;;16.08;4.72;;;15.90;99.90;;;16.28;63.82;102442.16;5033536;28;20120;-65
2022/10/06 05:12:37;;;;;;;15.40;4.55;;;15.90;99.90;;;16.17;63.93;102457.31;5032243;28;20045;-65
2022/10/06 05:15:09;;;;;;;14.60;4.93;;;15.90;99.90;;;16.15;64.16;102458.19;5032123;28;20045;-66
2022/10/06 05:17:38;;;;;;;13.93;4.88;;;15.90;99.90;;;16.14;64.29;102453.75;5032036;28;20068;-67
2022/10/06 05:20:09;;;;;;;20.27;5.00;;;15.80;99.90;;;16.17;64.13;102451.97;5032188;28;20047;-65
2022/10/06 05:22:38;;;;;;;12.27;4.80;;;15.80;99.90;;;16.20;64.10;102459.09;5032327;28;20456;-66
2022/10/06 05:25:07;;;;;;;15.10;4.22;;;15.90;99.90;;;16.22;64.09;102465.28;5031938;28;20430;-66
2022/10/06 05:27:36;;;;;;;17.15;5.15;;;15.90;99.90;;;16.27;63.93;102468.84;5032179;28;20053;-65
2022/10/06 05:30:05;;;;;;;16.25;4.78;;;15.90;99.90;;;16.24;64.03;102472.41;5033376;28;20407;-66
2022/10/06 05:32:35;;;;;;;17.85;4.80;;;15.90;99.90;;;16.26;64.04;102475.06;5048749;28;20051;-66
2022/10/06 05:35:05;;;;;;;;;;;15.90;99.90;;;16.30;64.05;102482.19;5032247;28;20045;-66
2022/10/06 05:37:33;;;;;;;12.88;4.50;;;16.00;99.90;;;16.27;64.42;102482.22;5033284;28;19928;-66
2022/10/06 05:40:02;;;;;;;17.33;4.90;;;16.00;99.90;;;16.30;64.49;102486.66;5031685;28;20046;-65
2022/10/06 05:42:30;;;;;;;13.45;5.05;;;15.90;99.90;;;16.31;64.59;102497.34;5048235;28;20056;-65
2022/10/06 05:45:00;;;;;;;14.95;5.00;;;15.90;99.90;;;16.33;64.70;102500.91;5031939;28;20068;-65
2022/10/06 05:47:29;;;;;;;20.17;5.30;;;15.90;99.90;;;16.26;65.00;102499.09;5031834;28;20149;-66
2022/10/06 05:49:59;;;;;;;12.57;5.60;;;15.90;99.90;;;16.31;65.04;102504.47;5031620;28;20033;-65
2022/10/06 05:52:27;;;;;;;12.27;4.78;;;15.90;99.90;;;16.32;64.83;102503.59;5031785;28;20073;-66
2022/10/06 05:54:56;;;;;;;16.02;5.63;;;15.90;99.90;;;16.11;64.74;102468.00;5033079;28;20064;-66
2022/10/06 05:57:27;;;;;;;12.73;4.05;;;16.00;99.90;;;16.35;64.74;102506.22;5031648;28;20053;-66
2022/10/06 05:59:57;;;;;;;16.05;4.47;;;16.00;99.90;;;15.24;64.80;102321.31;5032714;28;20111;-66
2022/10/06 06:02:25;;;;;;;19.20;5.00;;;16.00;99.90;;;16.32;64.79;102515.13;5031699;28;20037;-67
2022/10/06 06:04:54;;;;;;;15.02;5.30;;;16.00;99.90;;;16.32;64.68;102511.59;5031683;28;20076;-67
2022/10/06 06:07:24;;;;;;;8.70;4.30;;;15.90;99.90;;;16.32;64.60;102514.25;5031724;28;20041;-66
2022/10/06 06:09:52;;;;;;;13.82;4.32;;;15.90;99.90;;;16.38;64.50;102515.13;5031642;28;20045;-66
2022/10/06 06:12:20;;;;;;;15.48;4.57;;;16.00;99.90;;;16.41;64.37;102514.22;5031725;28;20052;-67
2022/10/06 06:17:46;;;;;;;16.30;4.78;;;16.20;99.90;;;16.51;63.82;102506.22;5031487;28;20046;-67
2022/10/06 06:20:15;;;;;;;13.93;4.88;;;16.30;99.90;;;16.74;63.31;102536.44;5032862;28;20084;-67
2022/10/06 06:22:45;;;;;;;11.35;4.43;;;16.40;99.90;;;16.85;62.95;102529.28;5031523;28;20041;-67
2022/10/06 06:25:13;;;;;;;13.67;4.97;;;16.50;99.90;;;17.10;62.62;102539.00;5047748;28;20060;-67
2022/10/06 06:27:44;;;;;;;11.45;4.45;;;16.70;99.90;;;17.31;61.97;102545.13;5031493;28;20103;-66
2022/10/06 06:30:13;;;;;;;13.30;4.40;;;16.90;99.90;;;17.47;61.50;102552.16;5031463;28;20053;-67
2022/10/06 06:32:41;;;;;;;17.23;5.00;;;17.10;99.90;;;17.53;61.26;102554.84;5032644;28;20064;-66
2022/10/06 06:35:10;;;;;;;18.70;5.07;;;17.20;99.90;;;17.54;61.30;102557.50;5031419;28;20045;-67
2022/10/06 06:37:38;;;;;;;14.75;5.35;;;17.20;99.90;;;17.58;60.78;102550.34;5031414;28;20458;-68
2022/10/06 06:40:09;;;;;;;13.20;4.47;;;17.40;99.90;;;17.85;60.26;102571.56;5032664;28;20049;-66
2022/10/06 06:42:39;;;;;;;17.80;5.15;;;17.50;99.90;;;17.90;60.59;102573.31;5031426;28;20490;-68
2022/10/06 06:45:26;;;;;;;13.05;5.00;;;17.60;99.90;;;18.00;60.91;102576.84;5032628;28;20045;-68
2022/10/06 06:48:15;;;;;;;17.38;5.28;;;17.60;99.90;;;18.12;60.05;102579.41;5032509;28;20053;-68
2022/10/06 06:50:45;;;;;;;11.63;4.63;;;17.80;99.90;;;18.37;59.55;102589.00;5034938;28;20045;-67
2022/10/06 06:53:14;;;;;;;14.15;4.90;;;18.00;99.90;;;18.44;58.83;102597.91;5034855;28;20052;-67
2022/10/06 06:55:51;;;;;;;16.10;5.28;;;18.10;99.90;;;18.46;58.89;102586.28;5034902;28;20042;-68
2022/10/06 06:58:22;;;;;;;10.10;4.40;;;18.30;99.90;;;18.84;58.30;102608.25;5034826;28;20052;-68
2022/10/06 07:00:50;;;;;;;9.43;4.22;;;18.50;99.90;;;19.17;57.44;102616.81;5036051;28;20049;-68
2022/10/06 07:03:21;;;;;;;13.02;4.57;;;18.80;99.90;;;19.22;56.95;102582.78;5034714;28;20037;-66
2022/10/06 07:06:11;;;;;;;;;;;19.10;99.90;;;19.61;55.81;102614.47;5035366;28;20136;-65
2022/10/06 07:08:43;;;;;;;12.70;4.45;;;19.40;99.90;;;19.97;55.36;102624.72;5035721;28;19921;-63
2022/10/06 07:11:16;;;;;;;13.18;4.85;;;19.70;99.90;;;20.06;54.88;102627.25;5034627;28;20056;-65
2022/10/06 07:13:47;;;;;;;15.55;5.03;;;19.90;99.90;;;20.13;54.17;102638.81;5034293;28;20144;-65
2022/10/06 07:27:31;;;;;;;10.98;3.72;;;21.20;99.90;;;21.71;48.97;102649.31;5033951;28;20057;-64
2022/10/06 07:29:59;;;;;;;9.05;3.90;;;21.50;99.90;;;21.90;48.69;102658.78;5034107;28;20046;-65
2022/10/06 07:32:30;;;;;;;11.60;3.75;;;21.70;99.90;;;22.05;47.77;102658.44;5035397;28;20119;-66
2022/10/06 07:34:59;;;;;;;12.15;3.50;;;21.80;99.90;;;22.24;47.25;102645.41;5034180;28;20076;-69
2022/10/06 07:37:28;;;;;;;10.25;3.78;;;22.10;99.90;;;22.55;46.85;102673.38;5033982;28;20140;-65
2022/10/06 07:39:59;;;;;;;10.55;4.25;;;22.30;99.90;;;22.85;46.67;102674.44;5034062;28;20092;-65
2022/10/06 07:42:29;;;;;;;7.28;3.50;;;22.50;99.90;;;23.06;45.00;102681.97;5033860;28;20060;-66
2022/10/06 07:47:44;;;;;;;6.15;3.83;;;23.00;99.90;;;23.30;44.22;102687.59;5050513;28;20429;-64
2022/10/06 07:50:12;;;;;;;8.68;3.60;;;23.00;99.90;;;23.33;44.39;102680.34;5033400;28;20048;-64
2022/10/06 07:52:41;;;;;;;12.27;3.70;;;23.20;99.90;;;23.27;44.13;102641.75;5033717;28;20499;-64
2022/10/06 07:55:10;;;;;;;8.95;3.28;;;23.20;99.90;;;23.72;44.37;102695.41;5034920;28;20046;-64
2022/10/06 07:57:46;;;;;;;10.65;3.88;;;23.40;99.90;;;23.81;43.97;102698.72;5050401;28;20057;-63
2022/10/06 08:00:15;;;;;;;7.22;3.33;;;23.50;99.90;;;23.77;43.94;102701.59;5033651;28;20041;-67
2022/10/06 08:02:43;;;;;;;8.25;3.38;;;23.50;99.90;;;23.78;43.68;102711.44;5034846;28;20042;-66
2022/10/06 08:05:12;;;;;;;10.02;3.60;;;23.40;99.90;;;23.34;44.29;102722.66;5034716;28;20103;-66
2022/10/06 08:07:41;;;;;;;8.40;3.45;;;23.10;99.90;;;23.60;44.84;102728.19;5034413;28;20046;-66
2022/10/06 08:10:09;;;;;;;8.40;3.60;;;23.20;99.90;;;23.48;43.94;102721.31;5034972;28;20185;-65
2022/10/06 08:12:39;;;;;;;11.13;3.90;;;23.10;99.90;;;23.55;43.63;102706.72;5034249;28;20446;-65
2022/10/06 08:15:12;;;;;;;12.63;4.10;;;23.30;99.90;;;23.61;43.03;102724.56;5034572;28;20044;-66
2022/10/06 08:17:41;;;;;;;9.57;3.63;;;23.30;99.90;;;23.48;42.94;102718.63;5034579;28;20418;-66
2022/10/06 08:20:12;;;;;;;8.68;3.30;;;23.20;99.90;;;23.40;43.10;102726.06;5034331;28;20072;-66
2022/10/06 08:22:41;;;;;;;6.88;3.28;;;23.10;99.90;;;23.65;43.30;102735.25;5034325;28;20064;-66
2022/10/06 08:25:11;;;;;;;10.75;3.40;;;23.20;99.90;;;23.81;43.11;102733.84;5034151;28;20049;-65
2022/10/06 08:27:43;;;;;;;7.13;3.03;;;23.30;99.90;;;23.75;42.42;102744.00;5033247;28;20061;-65
2022/10/06 08:30:13;;;;;;;10.20;3.20;;;23.40;99.90;;;23.80;42.10;102748.31;5033950;28;20041;-66
2022/10/06 08:32:42;;;;;;;9.48;2.95;;;23.40;99.90;;;23.90;41.96;102757.06;5034013;28;20491;-66
2022/10/06 08:35:11;;;;;;;10.13;3.15;;;23.50;99.90;;;24.03;41.42;102753.97;5033951;28;20049;-65
2022/10/06 08:37:39;;;;;;;9.23;3.25;;;23.60;99.90;;;24.17;41.47;102759.84;5033880;28;20049;-66
2022/10/06 08:40:13;;;;;;;7.43;2.92;;;23.80;99.90;;;24.16;41.30;102766.19;5034441;28;20080;-66
2022/10/06 08:42:45;;;;;;;9.35;3.17;;;23.70;99.90;;;24.07;40.94;102765.56;5033834;28;20045;-66
2022/10/06 08:45:22;;;;;;;11.02;3.20;;;23.70;99.90;;;23.80;41.19;102759.13;5032514;28;20037;-66
2022/10/06 08:47:59;;;;;;;8.43;3.53;;;23.50;99.90;;;23.93;41.72;102765.94;5034036;28;20053;-66
2022/10/06 08:50:31;;;;;;;9.93;3.75;;;23.50;99.90;;;23.65;41.39;102774.91;5034291;28;20045;-67
2022/10/06 08:53:07;;;;;;;7.18;2.75;;;23.40;99.90;;;22.26;43.80;102770.31;5033893;28;20128;-66
2022/10/06 08:55:46;;;;;;;8.35;3.55;;;22.30;99.90;;;21.79;43.96;102768.59;5049288;28;20092;-67
2022/10/06 08:58:30;;;;;;;9.23;3.50;;;21.70;99.90;;;21.39;44.72;102770.25;5033633;28;20398;-66
2022/10/06 09:01:14;;;;;;;8.40;3.60;;;21.20;99.90;;;21.00;46.26;102773.66;5033447;28;20136;-66
2022/10/06 09:03:48;;;;;;;13.95;4.40;;;20.80;99.90;;;20.99;47.09;102766.47;5033498;28;20052;-66
2022/10/06 09:06:44;;;;;;;9.88;4.20;;;20.80;99.90;;;20.86;47.70;102755.06;5033794;28;20049;-66
2022/10/06 09:09:24;;;;;;;12.63;4.50;;;20.70;99.90;;;20.79;48.26;102782.09;5033423;28;20387;-66
2022/10/06 09:12:05;;;;;;;9.43;3.60;;;20.60;99.90;;;20.97;48.39;102785.34;5048562;28;20049;-66
2022/10/06 09:14:41;;;;;;;8.85;3.85;;;20.60;99.90;;;21.28;47.50;102785.72;5033296;28;20622;-66
2022/10/06 09:17:17;;;;;;;9.02;3.85;;;20.80;99.90;;;21.58;47.14;102795.06;5032350;28;20144;-66
2022/10/06 09:19:51;;;;;;;10.70;3.67;;;21.10;99.90;;;21.42;46.48;102772.91;5033854;28;20095;-66
2022/10/06 09:22:23;;;;;;;8.23;3.83;;;21.10;99.90;;;21.36;46.91;102787.38;5033300;28;20183;-66
2022/10/06 09:24:56;;;;;;;9.40;3.67;;;21.10;99.90;;;21.49;47.00;102782.66;5033259;28;20467;-66
2022/10/06 09:27:31;;;;;;;5.95;3.50;;;21.10;99.90;;;21.54;46.87;102794.25;5033205;28;20132;-66
2022/10/06 09:30:03;;;;;;;12.30;4.15;;;21.10;99.90;;;21.80;47.26;102796.41;5033157;28;20049;-66
2022/10/06 09:32:34;;;;;;;14.10;3.72;;;21.40;99.90;;;21.91;46.68;102802.53;5033034;28;20050;-66
2022/10/06 09:35:17;;;;;;;9.75;3.92;;;21.50;99.90;;;21.82;46.63;102800.88;5033016;28;20129;-66
2022/10/06 09:37:57;;;;;;;7.43;4.00;;;21.50;99.90;;;21.66;46.55;102804.75;5031930;28;20053;-66
2022/10/06 09:40:36;;;;;;;9.05;3.72;;;21.30;99.90;;;21.69;46.75;102798.44;5033012;28;20601;-66
2022/10/06 09:43:20;;;;;;;7.50;3.58;;;21.30;99.90;;;21.71;46.13;102792.09;5033520;28;20486;-66
2022/10/06 09:45:50;;;;;;;9.23;3.85;;;21.30;99.90;;;21.82;45.84;102798.19;5032936;28;20045;-66
2022/10/06 09:48:23;;;;;;;10.45;4.20;;;21.40;99.90;;;21.91;46.82;102803.38;5032819;28;20060;-67
2022/10/06 09:51:13;;;;;;;14.05;3.92;;;21.40;99.90;;;22.07;46.10;102809.34;5033173;28;20046;-66
2022/10/06 09:53:42;;;;;;;11.38;3.80;;;21.60;99.90;;;22.12;46.67;102780.50;5031834;28;20136;-67
2022/10/06 09:56:18;;;;;;;10.05;4.13;;;21.80;99.90;;;22.28;46.05;102807.09;5033060;28;20041;-66
2022/10/06 09:58:56;;;;;;;11.90;4.10;;;21.90;99.90;;;21.53;46.64;102703.56;5033090;28;20055;-66
2022/10/06 10:01:27;;;;;;;11.80;4.35;;;21.80;99.90;;;22.25;46.68;102807.16;5032683;28;20049;-66
2022/10/06 10:04:00;;;;;;;12.43;4.40;;;21.90;99.90;;;22.21;46.89;102816.25;5033305;28;20069;-66
2022/10/06 10:06:48;;;;;;;8.25;3.25;;;21.80;99.90;;;22.09;45.95;102810.22;5032639;28;20471;-66
2022/10/06 10:09:24;;;;;;;;;;;21.70;99.90;;;21.83;46.40;102816.16;5033233;28;20076;-66
2022/10/06 10:12:30;;;;;;;10.02;4.03;;;21.60;99.90;;;21.82;46.46;102810.78;5032608;28;20123;-67
2022/10/06 10:15:03;;;;;;;10.85;3.85;;;21.50;99.90;;;21.86;45.85;102804.41;5032882;28;20128;-66
2022/10/06 10:17:39;;;;;;;9.45;3.33;;;21.50;99.90;;;22.05;45.77;102812.09;5032601;28;20469;-66
2022/10/06 10:20:26;;;;;;;10.90;3.72;;;21.70;99.90;;;21.95;46.13;102821.28;5032954;28;20069;-67
2022/10/06 10:22:58;;;;;;;11.00;4.22;;;21.60;99.90;;;22.13;46.12;102823.59;5033465;28;20050;-66
2022/10/06 10:26:00;;;;;;;7.60;3.30;;;21.70;99.90;;;22.31;46.27;102830.41;5036796;28;20057;-66
2022/10/06 10:28:56;;;;;;;9.50;3.45;;;22.00;99.90;;;22.36;45.26;102842.88;5025869;28;20281;-67
2022/10/06 10:31:37;;;;;;;8.35;3.78;;;22.00;99.90;;;22.18;45.32;102835.16;5036355;28;20128;-66
2022/10/06 10:34:14;;;;;;;13.52;4.03;;;21.90;99.90;;;22.36;45.37;102845.56;5036364;28;20406;-66
2022/10/06 10:36:58;;;;;;;10.30;3.88;;;22.00;99.90;;;22.29;45.64;102834.94;5036352;28;20041;-66
2022/10/06 10:39:33;;;;;;;10.02;4.10;;;21.90;99.90;;;22.08;45.34;102830.91;5036045;28;20069;-66
2022/10/06 10:42:10;;;;;;;10.45;3.45;;;21.80;99.90;;;21.73;45.50;102720.22;5036507;28;20455;-67
2022/10/06 10:44:48;;;;;;;9.40;3.60;;;22.00;99.90;;;22.39;44.51;102837.44;5036368;28;20053;-67
2022/10/06 10:47:24;;;;;;;8.23;3.60;;;22.00;99.90;;;22.62;45.37;102838.75;5035934;28;20060;-66
2022/10/06 10:50:05;;;;;;;8.07;3.67;;;22.10;99.90;;;22.37;44.11;102841.97;5035087;28;20140;-67